createdAt,value
2018-06-21T00:00:03.576Z,50.80
2018-06-21T00:00:37.547Z,50.60
2018-06-21T00:01:11.574Z,50.60
2018-06-21T00:01:45.684Z,50.50
2018-06-21T00:02:19.538Z,50.50
2018-06-21T00:02:53.175Z,50.50
2018-06-21T00:03:27.004Z,50.40
2018-06-21T00:04:00.914Z,50.50
2018-06-21T00:04:34.710Z,50.60
2018-06-21T00:05:08.616Z,50.40
2018-06-21T00:05:42.608Z,50.50
2018-06-21T00:06:16.699Z,50.50
2018-06-21T00:06:50.798Z,50.50
2018-06-21T00:07:24.452Z,50.40
2018-06-21T00:07:58.384Z,50.20
2018-06-21T00:08:32.477Z,50.30
2018-06-21T00:09:08.317Z,50.40
2018-06-21T00:09:43.141Z,50.50
2018-06-21T00:10:16.838Z,50.80
2018-06-21T00:10:50.643Z,50.70
2018-06-21T00:11:24.435Z,50.40
2018-06-21T00:11:58.270Z,50.50
2018-06-21T00:12:31.902Z,50.40
2018-06-21T00:13:05.771Z,50.30
2018-06-21T00:13:39.696Z,50.70
2018-06-21T00:14:13.424Z,50.90
2018-06-21T00:14:47.656Z,51.10
2018-06-21T00:15:21.680Z,51.10
2018-06-21T00:15:55.475Z,51.10
2018-06-21T00:16:29.878Z,51.40
2018-06-21T00:17:04.354Z,51.40
2018-06-21T00:17:38.704Z,51.40
2018-06-21T00:18:12.487Z,51.10
2018-06-21T00:18:47.936Z,51.10
2018-06-21T00:19:21.814Z,51.20
2018-06-21T00:19:55.532Z,51.50
2018-06-21T00:20:29.168Z,52.30
2018-06-21T00:21:03.792Z,51.40
2018-06-21T00:21:38.179Z,51.50
2018-06-21T00:22:12.102Z,51.60
2018-06-21T00:22:46.320Z,51.40
2018-06-21T00:23:19.984Z,51.20
2018-06-21T00:23:53.614Z,51.20
2018-06-21T00:24:27.579Z,51.20
2018-06-21T00:25:01.204Z,51.30
2018-06-21T00:25:35.778Z,51.20
2018-06-21T00:26:10.120Z,51.30
2018-06-21T00:26:44.431Z,51.40
2018-06-21T00:27:18.393Z,52.10
2018-06-21T00:27:52.040Z,51.40
2018-06-21T00:28:25.972Z,51.50
2018-06-21T00:28:59.769Z,51.50
2018-06-21T00:29:33.555Z,51.70
2018-06-21T00:30:07.656Z,51.80
2018-06-21T00:30:42.136Z,52.60
2018-06-21T00:31:16.400Z,51.90
2018-06-21T00:31:50.199Z,52.00
2018-06-21T00:32:24.271Z,52.00
2018-06-21T00:32:58.580Z,52.00
2018-06-21T00:33:32.474Z,52.10
2018-06-21T00:34:06.969Z,52.10
2018-06-21T00:34:41.377Z,52.00
2018-06-21T00:35:15.603Z,51.90
2018-06-21T00:35:49.583Z,51.90
2018-06-21T00:36:23.366Z,51.80
2018-06-21T00:36:57.465Z,52.10
2018-06-21T00:37:31.252Z,52.40
2018-06-21T00:38:05.057Z,52.20
2018-06-21T00:38:39.458Z,52.20
2018-06-21T00:39:13.872Z,52.40
2018-06-21T00:39:48.271Z,52.50
2018-06-21T00:40:22.682Z,52.90
2018-06-21T00:40:56.466Z,52.80
2018-06-21T00:41:30.781Z,52.80
2018-06-21T00:42:06.441Z,53.00
2018-06-21T00:42:40.219Z,53.10
2018-06-21T00:43:16.452Z,53.00
2018-06-21T00:43:56.824Z,53.10
2018-06-21T00:44:34.347Z,53.40
2018-06-21T00:45:10.477Z,53.30
2018-06-21T00:45:45.373Z,53.00
2018-06-21T00:46:19.574Z,52.80
2018-06-21T00:46:57.713Z,52.80
2018-06-21T00:47:35.944Z,53.20
2018-06-21T00:48:10.955Z,52.90
2018-06-21T00:48:48.748Z,52.80
2018-06-21T00:49:22.537Z,52.90
2018-06-21T00:49:58.175Z,52.70
2018-06-21T00:50:35.161Z,52.70
2018-06-21T00:51:10.368Z,52.80
2018-06-21T00:51:45.696Z,52.70
2018-06-21T00:52:22.153Z,52.70
2018-06-21T00:53:01.318Z,52.70
2018-06-21T00:53:37.014Z,52.80
2018-06-21T00:54:13.528Z,52.90
2018-06-21T00:54:48.171Z,52.90
2018-06-21T00:55:33.894Z,53.10
2018-06-21T00:56:17.011Z,53.40
2018-06-21T00:58:02.683Z,53.70
2018-06-21T00:58:36.733Z,53.00
2018-06-21T00:59:12.370Z,53.00
2018-06-21T00:59:47.893Z,53.00
2018-06-21T01:00:24.480Z,53.00
2018-06-21T01:01:00.506Z,53.50
2018-06-21T01:01:34.239Z,53.30
2018-06-21T01:02:07.883Z,53.30
2018-06-21T01:02:42.633Z,53.30
2018-06-21T01:03:16.966Z,53.30
2018-06-21T01:03:50.627Z,53.30
2018-06-21T01:04:24.489Z,53.40
2018-06-21T01:04:58.556Z,53.30
2018-06-21T01:05:34.223Z,53.20
2018-06-21T01:06:07.861Z,53.40
2018-06-21T01:06:41.563Z,53.20
2018-06-21T01:07:49.013Z,54.20
2018-06-21T01:08:23.484Z,53.30
2018-06-21T01:08:57.843Z,53.50
2018-06-21T01:09:31.998Z,53.80
2018-06-21T01:10:05.865Z,53.80
2018-06-21T01:10:39.891Z,53.50
2018-06-21T01:11:13.624Z,53.50
2018-06-21T01:11:48.282Z,53.60
2018-06-21T01:12:22.669Z,53.70
2018-06-21T01:12:57.586Z,53.50
2018-06-21T01:13:31.929Z,52.50
2018-06-21T01:14:07.188Z,53.20
2018-06-21T01:14:40.976Z,53.10
2018-06-21T01:15:14.839Z,53.10
2018-06-21T01:15:48.634Z,53.10
2018-06-21T01:16:22.630Z,53.40
2018-06-21T01:16:57.207Z,53.40
2018-06-21T01:17:30.881Z,54.20
2018-06-21T01:18:04.488Z,53.40
2018-06-21T01:18:38.942Z,53.50
2018-06-21T01:19:12.588Z,53.30
2018-06-21T01:19:46.192Z,53.40
2018-06-21T01:20:19.737Z,53.70
2018-06-21T01:20:53.990Z,53.20
2018-06-21T01:21:27.552Z,53.50
2018-06-21T01:22:02.009Z,53.90
2018-06-21T01:22:35.600Z,53.80
2018-06-21T01:23:10.554Z,53.70
2018-06-21T01:23:44.995Z,53.70
2018-06-21T01:24:18.720Z,53.90
2018-06-21T01:25:25.654Z,54.50
2018-06-21T01:26:33.597Z,54.40
2018-06-21T01:27:07.218Z,53.70
2018-06-21T01:27:40.823Z,53.90
2018-06-21T01:28:16.097Z,54.40
2018-06-21T01:28:49.745Z,54.20
2018-06-21T01:29:23.832Z,54.30
2018-06-21T01:29:57.421Z,54.30
2018-06-21T01:30:31.630Z,54.30
2018-06-21T01:31:05.212Z,54.50
2018-06-21T01:31:38.798Z,54.60
2018-06-21T01:32:12.440Z,54.60
2018-06-21T01:32:46.438Z,54.70
2018-06-21T01:33:20.047Z,54.60
2018-06-21T01:33:53.737Z,55.40
2018-06-21T01:34:27.325Z,55.50
2018-06-21T01:35:00.991Z,55.00
2018-06-21T01:35:34.594Z,55.10
2018-06-21T01:36:09.249Z,55.20
2018-06-21T01:36:43.453Z,55.30
2018-06-21T01:37:17.076Z,55.30
2018-06-21T01:37:51.154Z,55.50
2018-06-21T01:38:24.736Z,55.70
2018-06-21T01:38:58.376Z,55.60
2018-06-21T01:39:31.933Z,55.60
2018-06-21T01:40:05.521Z,55.90
2018-06-21T01:40:39.171Z,56.00
2018-06-21T01:41:13.775Z,56.00
2018-06-21T01:41:48.073Z,56.00
2018-06-21T01:42:21.665Z,56.00
2018-06-21T01:42:55.392Z,56.00
2018-06-21T01:43:29.020Z,56.00
2018-06-21T01:44:02.754Z,56.00
2018-06-21T01:44:36.376Z,56.20
2018-06-21T01:45:09.989Z,56.00
2018-06-21T01:45:43.582Z,56.10
2018-06-21T01:46:18.074Z,56.20
2018-06-21T01:46:51.675Z,56.30
2018-06-21T01:47:26.015Z,56.40
2018-06-21T01:47:59.616Z,57.10
2018-06-21T01:48:34.209Z,56.50
2018-06-21T01:49:08.136Z,56.60
2018-06-21T01:49:42.412Z,56.70
2018-06-21T01:50:17.327Z,56.90
2018-06-21T01:50:50.985Z,56.90
2018-06-21T01:51:24.599Z,57.10
2018-06-21T01:51:59.269Z,57.10
2018-06-21T01:52:32.895Z,57.00
2018-06-21T01:53:07.180Z,57.50
2018-06-21T01:53:41.295Z,56.90
2018-06-21T01:54:14.929Z,57.00
2018-06-21T01:54:48.581Z,57.10
2018-06-21T01:55:22.196Z,57.20
2018-06-21T01:55:55.813Z,57.20
2018-06-21T01:56:29.484Z,57.10
2018-06-21T01:57:03.227Z,57.10
2018-06-21T01:57:36.873Z,56.90
2018-06-21T01:58:11.816Z,57.00
2018-06-21T01:58:45.353Z,57.10
2018-06-21T01:59:19.017Z,57.20
2018-06-21T01:59:53.031Z,57.20
2018-06-21T02:00:26.644Z,57.20
2018-06-21T02:01:01.539Z,57.20
2018-06-21T02:01:37.728Z,57.20
2018-06-21T02:02:13.525Z,57.10
2018-06-21T02:02:49.906Z,57.00
2018-06-21T02:03:23.574Z,57.10
2018-06-21T02:03:58.279Z,57.00
2018-06-21T02:04:33.885Z,57.10
2018-06-21T02:05:09.823Z,57.10
2018-06-21T02:05:46.137Z,57.10
2018-06-21T02:06:20.995Z,57.10
2018-06-21T02:06:54.693Z,57.20
2018-06-21T02:07:29.318Z,57.30
2018-06-21T02:08:40.129Z,58.20
2018-06-21T02:09:16.633Z,57.60
2018-06-21T02:09:53.130Z,57.80
2018-06-21T02:10:30.689Z,57.90
2018-06-21T02:11:07.537Z,57.90
2018-06-21T02:11:44.532Z,58.00
2018-06-21T02:12:22.730Z,58.00
2018-06-21T02:13:03.264Z,57.80
2018-06-21T02:13:40.548Z,57.80
2018-06-21T02:14:15.767Z,57.60
2018-06-21T02:14:50.038Z,57.90
2018-06-21T02:15:25.709Z,57.90
2018-06-21T02:15:59.565Z,57.90
2018-06-21T02:16:33.141Z,57.80
2018-06-21T02:17:07.013Z,57.70
2018-06-21T02:17:40.937Z,57.80
2018-06-21T02:18:15.192Z,57.90
2018-06-21T02:18:49.583Z,57.80
2018-06-21T02:19:24.147Z,57.90
2018-06-21T02:19:57.757Z,58.00
2018-06-21T02:20:31.970Z,57.90
2018-06-21T02:21:05.755Z,57.90
2018-06-21T02:21:39.389Z,57.90
2018-06-21T02:22:13.909Z,57.90
2018-06-21T02:22:47.541Z,58.00
2018-06-21T02:23:21.416Z,58.10
2018-06-21T02:23:55.505Z,58.30
2018-06-21T02:24:29.081Z,58.20
2018-06-21T02:25:02.668Z,58.10
2018-06-21T02:25:36.255Z,58.10
2018-06-21T02:26:10.726Z,58.10
2018-06-21T02:26:44.324Z,58.10
2018-06-21T02:27:17.920Z,58.10
2018-06-21T02:27:51.492Z,58.20
2018-06-21T02:28:25.775Z,58.20
2018-06-21T02:28:59.384Z,58.40
2018-06-21T02:29:33.019Z,58.40
2018-06-21T02:30:06.786Z,58.40
2018-06-21T02:30:40.461Z,58.40
2018-06-21T02:31:14.059Z,58.30
2018-06-21T02:31:47.721Z,58.30
2018-06-21T02:32:21.411Z,58.50
2018-06-21T02:32:55.041Z,58.40
2018-06-21T02:33:28.645Z,58.20
2018-06-21T02:34:02.251Z,58.20
2018-06-21T02:34:36.829Z,58.10
2018-06-21T02:35:11.283Z,58.10
2018-06-21T02:35:45.081Z,58.00
2018-06-21T02:36:19.567Z,58.00
2018-06-21T02:36:53.273Z,58.00
2018-06-21T02:37:28.622Z,58.00
2018-06-21T02:38:02.283Z,57.90
2018-06-21T02:38:36.668Z,57.70
2018-06-21T02:39:12.721Z,57.80
2018-06-21T02:39:47.032Z,57.90
2018-06-21T02:40:21.106Z,58.00
2018-06-21T02:40:54.723Z,58.00
2018-06-21T02:41:31.125Z,58.00
2018-06-21T02:42:04.735Z,57.90
2018-06-21T02:43:15.248Z,58.00
2018-06-21T02:43:49.660Z,58.00
2018-06-21T02:44:23.395Z,58.00
2018-06-21T02:44:57.042Z,58.00
2018-06-21T02:45:30.900Z,58.00
2018-06-21T02:46:38.742Z,58.10
2018-06-21T02:47:13.118Z,58.00
2018-06-21T02:47:47.308Z,58.00
2018-06-21T02:48:21.001Z,58.00
2018-06-21T02:48:54.604Z,58.10
2018-06-21T02:49:28.533Z,58.00
2018-06-21T02:50:02.092Z,58.00
2018-06-21T02:50:37.757Z,57.90
2018-06-21T02:51:13.359Z,58.10
2018-06-21T02:51:47.078Z,58.10
2018-06-21T02:52:25.450Z,58.00
2018-06-21T02:53:01.474Z,57.90
2018-06-21T02:53:36.209Z,57.80
2018-06-21T02:54:09.754Z,57.70
2018-06-21T02:54:44.757Z,57.70
2018-06-21T02:55:18.380Z,57.60
2018-06-21T02:55:52.861Z,57.60
2018-06-21T02:56:26.509Z,57.60
2018-06-21T02:57:00.170Z,57.60
2018-06-21T02:57:33.733Z,57.70
2018-06-21T02:58:08.466Z,57.60
2018-06-21T02:59:15.358Z,57.60
2018-06-21T02:59:48.941Z,57.50
2018-06-21T03:00:23.258Z,57.50
2018-06-21T03:00:57.103Z,57.40
2018-06-21T03:01:30.663Z,57.40
2018-06-21T03:02:04.359Z,57.40
2018-06-21T03:02:37.874Z,57.50
2018-06-21T03:03:11.489Z,57.80
2018-06-21T03:03:45.626Z,57.60
2018-06-21T03:04:19.256Z,57.50
2018-06-21T03:04:52.869Z,57.40
2018-06-21T03:05:26.454Z,57.50
2018-06-21T03:06:01.438Z,57.40
2018-06-21T03:06:35.083Z,57.30
2018-06-21T03:07:09.134Z,57.40
2018-06-21T03:07:42.701Z,57.30
2018-06-21T03:08:16.303Z,57.20
2018-06-21T03:08:49.937Z,57.20
2018-06-21T03:09:24.115Z,57.20
2018-06-21T03:09:57.672Z,57.30
2018-06-21T03:10:31.853Z,57.30
2018-06-21T03:11:05.393Z,57.20
2018-06-21T03:11:39.465Z,57.20
2018-06-21T03:12:18.309Z,57.30
2018-06-21T03:12:51.985Z,57.30
2018-06-21T03:13:25.589Z,57.40
2018-06-21T03:13:59.228Z,57.30
2018-06-21T03:14:32.889Z,57.40
2018-06-21T03:15:06.793Z,57.50
2018-06-21T03:15:40.385Z,57.60
2018-06-21T03:16:14.719Z,57.50
2018-06-21T03:16:48.296Z,57.40
2018-06-21T03:17:22.260Z,57.60
2018-06-21T03:17:55.810Z,57.40
2018-06-21T03:18:29.406Z,57.50
2018-06-21T03:19:02.953Z,57.50
2018-06-21T03:19:36.571Z,57.60
2018-06-21T03:20:10.210Z,57.60
2018-06-21T03:20:43.866Z,57.60
2018-06-21T03:21:17.453Z,57.60
2018-06-21T03:21:51.042Z,57.60
2018-06-21T03:22:24.617Z,57.60
2018-06-21T03:23:31.422Z,57.70
2018-06-21T03:24:05.140Z,57.70
2018-06-21T03:24:39.245Z,57.60
2018-06-21T03:25:12.859Z,57.60
2018-06-21T03:25:46.414Z,57.80
2018-06-21T03:26:20.015Z,57.90
2018-06-21T03:26:53.583Z,57.90
2018-06-21T03:27:27.224Z,57.90
2018-06-21T03:28:00.852Z,57.90
2018-06-21T03:28:34.454Z,57.80
2018-06-21T03:29:08.078Z,57.70
2018-06-21T03:29:41.765Z,57.80
2018-06-21T03:30:48.667Z,57.90
2018-06-21T03:31:22.520Z,57.90
2018-06-21T03:32:29.412Z,57.90
2018-06-21T03:33:03.035Z,58.10
2018-06-21T03:33:36.655Z,58.30
2018-06-21T03:34:10.277Z,58.40
2018-06-21T03:34:44.261Z,58.40
2018-06-21T03:35:18.069Z,58.40
2018-06-21T03:35:51.632Z,58.40
2018-06-21T03:36:25.224Z,58.40
2018-06-21T03:36:58.817Z,58.30
2018-06-21T03:37:32.436Z,58.20
2018-06-21T03:38:06.286Z,58.10
2018-06-21T03:38:39.881Z,58.20
2018-06-21T03:39:13.687Z,58.30
2018-06-21T03:39:47.907Z,58.20
2018-06-21T03:40:22.179Z,58.20
2018-06-21T03:40:56.881Z,58.40
2018-06-21T03:41:30.774Z,58.50
2018-06-21T03:42:04.556Z,58.60
2018-06-21T03:42:38.733Z,58.70
2018-06-21T03:43:12.374Z,58.60
2018-06-21T03:43:45.964Z,58.50
2018-06-21T03:44:19.568Z,58.50
2018-06-21T03:44:53.840Z,58.70
2018-06-21T03:45:27.901Z,58.70
2018-06-21T03:46:01.536Z,58.60
2018-06-21T03:46:35.107Z,58.70
2018-06-21T03:47:08.716Z,58.70
2018-06-21T03:48:15.852Z,58.30
2018-06-21T03:48:49.498Z,58.50
2018-06-21T03:49:23.128Z,58.60
2018-06-21T03:49:56.820Z,58.60
2018-06-21T03:50:30.475Z,58.60
2018-06-21T03:51:05.532Z,58.60
2018-06-21T03:51:39.091Z,58.60
2018-06-21T03:52:12.658Z,58.70
2018-06-21T03:52:46.228Z,58.90
2018-06-21T03:53:19.846Z,59.10
2018-06-21T03:53:53.474Z,59.10
2018-06-21T03:54:27.367Z,59.20
2018-06-21T03:55:00.997Z,59.20
2018-06-21T03:55:34.524Z,59.10
2018-06-21T03:56:08.075Z,59.00
2018-06-21T03:56:41.749Z,59.00
2018-06-21T03:57:16.013Z,59.00
2018-06-21T03:57:49.639Z,59.10
2018-06-21T03:58:23.288Z,59.20
2018-06-21T03:58:56.937Z,59.00
2018-06-21T03:59:31.124Z,58.90
2018-06-21T04:00:04.989Z,58.80
2018-06-21T04:00:38.592Z,58.90
2018-06-21T04:01:12.124Z,58.80
2018-06-21T04:01:45.744Z,58.80
2018-06-21T04:02:19.437Z,58.80
2018-06-21T04:02:53.017Z,58.90
2018-06-21T04:03:26.597Z,58.90
2018-06-21T04:04:00.865Z,58.90
2018-06-21T04:04:34.531Z,58.90
2018-06-21T04:05:08.137Z,59.00
2018-06-21T04:05:41.712Z,59.00
2018-06-21T04:06:15.960Z,58.80
2018-06-21T04:06:49.519Z,58.90
2018-06-21T04:07:23.161Z,58.90
2018-06-21T04:07:57.349Z,59.00
2018-06-21T04:08:30.918Z,59.00
2018-06-21T04:09:06.462Z,59.00
2018-06-21T04:09:40.289Z,59.00
2018-06-21T04:10:13.880Z,58.80
2018-06-21T04:10:48.108Z,58.90
2018-06-21T04:11:21.665Z,59.00
2018-06-21T04:11:55.257Z,59.00
2018-06-21T04:12:29.775Z,59.10
2018-06-21T04:13:03.762Z,59.10
2018-06-21T04:13:37.317Z,59.20
2018-06-21T04:14:10.945Z,59.30
2018-06-21T04:14:45.124Z,59.10
2018-06-21T04:15:18.771Z,59.70
2018-06-21T04:15:52.993Z,59.00
2018-06-21T04:16:26.634Z,59.20
2018-06-21T04:17:00.256Z,59.10
2018-06-21T04:17:33.958Z,59.00
2018-06-21T04:18:07.677Z,59.10
2018-06-21T04:18:41.284Z,59.10
2018-06-21T04:19:15.457Z,59.10
2018-06-21T04:19:49.069Z,59.00
2018-06-21T04:20:22.746Z,58.90
2018-06-21T04:20:57.189Z,58.90
2018-06-21T04:21:30.784Z,58.90
2018-06-21T04:22:04.441Z,59.00
2018-06-21T04:22:38.003Z,58.90
2018-06-21T04:23:11.605Z,59.00
2018-06-21T04:23:45.225Z,59.00
2018-06-21T04:24:52.097Z,58.90
2018-06-21T04:25:25.689Z,59.10
2018-06-21T04:25:59.694Z,59.00
2018-06-21T04:26:33.315Z,59.10
2018-06-21T04:27:07.416Z,59.20
2018-06-21T04:27:41.705Z,59.10
2018-06-21T04:28:15.252Z,59.10
2018-06-21T04:29:22.725Z,59.10
2018-06-21T04:29:56.316Z,59.20
2018-06-21T04:31:03.745Z,59.00
2018-06-21T04:31:37.592Z,59.20
2018-06-21T04:32:11.247Z,59.20
2018-06-21T04:32:44.805Z,59.20
2018-06-21T04:33:18.367Z,59.20
2018-06-21T04:33:52.679Z,59.40
2018-06-21T04:34:26.285Z,59.50
2018-06-21T04:34:59.888Z,59.50
2018-06-21T04:35:33.481Z,59.60
2018-06-21T04:36:07.236Z,59.60
2018-06-21T04:36:40.874Z,59.50
2018-06-21T04:37:14.517Z,59.70
2018-06-21T04:37:48.105Z,59.70
2018-06-21T04:38:21.789Z,59.70
2018-06-21T04:38:55.345Z,59.70
2018-06-21T04:39:28.933Z,59.60
2018-06-21T04:40:02.514Z,59.70
2018-06-21T04:40:36.110Z,59.70
2018-06-21T04:41:09.696Z,59.70
2018-06-21T04:41:43.312Z,59.60
2018-06-21T04:42:16.867Z,59.80
2018-06-21T04:42:50.488Z,60.00
2018-06-21T04:43:24.138Z,60.00
2018-06-21T04:43:57.732Z,60.10
2018-06-21T04:44:31.279Z,60.10
2018-06-21T04:45:05.313Z,60.00
2018-06-21T04:45:40.276Z,60.00
2018-06-21T04:46:13.848Z,60.00
2018-06-21T04:46:47.465Z,60.00
2018-06-21T04:47:21.112Z,60.10
2018-06-21T04:48:27.939Z,60.20
2018-06-21T04:49:01.782Z,60.20
2018-06-21T04:49:35.339Z,60.10
2018-06-21T04:50:09.189Z,60.00
2018-06-21T04:50:43.268Z,60.10
2018-06-21T04:51:50.166Z,60.10
2018-06-21T04:52:23.780Z,60.50
2018-06-21T04:52:58.026Z,60.60
2018-06-21T04:53:31.632Z,60.60
2018-06-21T04:54:05.987Z,60.40
2018-06-21T04:54:40.568Z,60.50
2018-06-21T04:55:14.659Z,61.20
2018-06-21T04:55:48.289Z,60.50
2018-06-21T04:56:21.936Z,60.50
2018-06-21T04:56:56.211Z,60.50
2018-06-21T04:57:30.462Z,60.40
2018-06-21T04:58:04.053Z,60.40
2018-06-21T04:58:37.682Z,60.30
2018-06-21T04:59:11.337Z,60.30
2018-06-21T04:59:44.927Z,60.40
2018-06-21T05:00:18.545Z,60.40
2018-06-21T05:00:52.155Z,60.50
2018-06-21T05:01:25.824Z,60.60
2018-06-21T05:02:00.668Z,60.60
2018-06-21T05:02:34.311Z,60.60
2018-06-21T05:03:07.943Z,60.60
2018-06-21T05:03:41.552Z,60.60
2018-06-21T05:04:15.673Z,60.80
2018-06-21T05:04:49.619Z,60.80
2018-06-21T05:05:23.229Z,60.70
2018-06-21T05:05:56.902Z,60.60
2018-06-21T05:06:30.489Z,60.60
2018-06-21T05:07:04.893Z,60.70
2018-06-21T05:07:38.522Z,60.60
2018-06-21T05:08:12.117Z,60.60
2018-06-21T05:08:45.782Z,60.60
2018-06-21T05:09:20.068Z,60.80
2018-06-21T05:09:54.212Z,60.70
2018-06-21T05:10:27.844Z,60.60
2018-06-21T05:11:34.745Z,60.60
2018-06-21T05:12:08.315Z,60.80
2018-06-21T05:12:42.372Z,60.80
2018-06-21T05:13:16.630Z,60.80
2018-06-21T05:13:50.204Z,60.90
2018-06-21T05:14:23.912Z,60.90
2018-06-21T05:14:57.511Z,61.00
2018-06-21T05:15:31.151Z,61.10
2018-06-21T05:16:04.749Z,61.00
2018-06-21T05:16:38.388Z,61.10
2018-06-21T05:17:12.012Z,61.10
2018-06-21T05:17:45.580Z,61.10
2018-06-21T05:18:19.318Z,61.00
2018-06-21T05:18:52.917Z,61.20
2018-06-21T05:19:26.536Z,61.20
2018-06-21T05:20:00.135Z,61.30
2018-06-21T05:20:33.684Z,61.30
2018-06-21T05:21:07.298Z,61.30
2018-06-21T05:21:42.468Z,61.30
2018-06-21T05:22:16.118Z,61.50
2018-06-21T05:22:49.719Z,61.50
2018-06-21T05:23:23.481Z,61.50
2018-06-21T05:23:57.872Z,61.60
2018-06-21T05:24:31.701Z,61.60
2018-06-21T05:25:05.835Z,61.60
2018-06-21T05:25:40.009Z,61.70
2018-06-21T05:26:13.575Z,61.90
2018-06-21T05:26:47.708Z,61.90
2018-06-21T05:27:21.314Z,61.90
2018-06-21T05:28:28.182Z,62.00
2018-06-21T05:29:02.312Z,62.30
2018-06-21T05:29:35.858Z,62.30
2018-06-21T05:30:09.416Z,62.30
2018-06-21T05:30:43.015Z,62.20
2018-06-21T05:31:17.846Z,62.30
2018-06-21T05:31:51.379Z,62.30
2018-06-21T05:32:25.300Z,62.40
2018-06-21T05:32:58.882Z,62.40
2018-06-21T05:33:32.980Z,62.60
2018-06-21T05:34:07.220Z,62.70
2018-06-21T05:34:40.791Z,62.70
2018-06-21T05:35:15.155Z,63.50
2018-06-21T05:35:49.569Z,62.90
2018-06-21T05:36:23.118Z,62.90
2018-06-21T05:36:57.244Z,62.90
2018-06-21T05:37:31.457Z,63.00
2018-06-21T05:38:05.054Z,63.10
2018-06-21T05:38:40.837Z,63.10
2018-06-21T05:39:48.840Z,63.00
2018-06-21T05:40:33.629Z,63.30
2018-06-21T05:41:07.210Z,63.20
2018-06-21T05:41:41.424Z,63.30
2018-06-21T05:42:14.976Z,63.40
2018-06-21T05:42:48.540Z,64.10
2018-06-21T05:43:22.143Z,63.40
2018-06-21T05:43:55.719Z,63.50
2018-06-21T05:44:30.641Z,63.40
2018-06-21T05:45:04.210Z,63.40
2018-06-21T05:45:37.847Z,63.40
2018-06-21T05:46:11.402Z,64.10
2018-06-21T05:46:45.885Z,63.50
2018-06-21T05:47:20.120Z,63.60
2018-06-21T05:47:53.654Z,63.60
2018-06-21T05:48:27.904Z,63.60
2018-06-21T05:49:34.718Z,63.80
2018-06-21T05:50:09.183Z,63.60
2018-06-21T05:50:42.823Z,63.70
2018-06-21T05:51:17.087Z,64.10
2018-06-21T05:51:50.619Z,64.30
2018-06-21T05:52:24.247Z,64.70
2018-06-21T05:52:58.626Z,65.10
2018-06-21T05:53:32.151Z,66.20
2018-06-21T05:54:05.932Z,65.50
2018-06-21T05:54:40.959Z,65.70
2018-06-21T05:55:14.560Z,65.90
2018-06-21T05:55:48.155Z,66.10
2018-06-21T05:56:22.165Z,66.10
2018-06-21T05:56:56.495Z,66.10
2018-06-21T05:57:30.063Z,66.00
2018-06-21T05:58:03.656Z,66.10
2018-06-21T05:58:37.247Z,66.30
2018-06-21T05:59:10.844Z,66.20
2018-06-21T05:59:44.428Z,66.40
2018-06-21T06:00:18.064Z,66.50
2018-06-21T06:00:52.272Z,66.60
2018-06-21T06:01:59.161Z,66.70
2018-06-21T06:02:32.686Z,67.10
2018-06-21T06:03:06.287Z,67.20
2018-06-21T06:03:39.856Z,67.40
2018-06-21T06:04:13.430Z,67.40
2018-06-21T06:04:47.544Z,68.00
2018-06-21T06:05:21.484Z,67.30
2018-06-21T06:05:55.056Z,67.40
2018-06-21T06:06:28.739Z,67.30
2018-06-21T06:07:02.318Z,67.50
2018-06-21T06:07:36.855Z,67.80
2018-06-21T06:08:43.688Z,67.70
2018-06-21T06:09:17.259Z,67.90
2018-06-21T06:09:50.849Z,68.00
2018-06-21T06:10:24.407Z,68.00
2018-06-21T06:10:57.971Z,68.10
2018-06-21T06:11:31.516Z,68.10
2018-06-21T06:12:06.628Z,68.20
2018-06-21T06:12:40.444Z,68.00
2018-06-21T06:13:14.124Z,68.20
2018-06-21T06:13:48.879Z,68.30
2018-06-21T06:14:55.676Z,68.30
2018-06-21T06:15:29.204Z,68.60
2018-06-21T06:16:02.746Z,68.60
2018-06-21T06:16:37.246Z,68.60
2018-06-21T06:17:10.756Z,68.50
2018-06-21T06:17:44.384Z,68.60
2018-06-21T06:18:17.972Z,68.60
2018-06-21T06:18:52.164Z,68.70
2018-06-21T06:19:25.788Z,67.90
2018-06-21T06:20:00.399Z,68.60
2018-06-21T06:20:33.919Z,68.90
2018-06-21T06:21:08.281Z,68.90
2018-06-21T06:21:42.414Z,69.10
2018-06-21T06:22:16.299Z,69.00
2018-06-21T06:22:49.868Z,68.80
2018-06-21T06:23:23.944Z,68.80
2018-06-21T06:23:57.456Z,68.90
2018-06-21T06:24:31.030Z,68.80
2018-06-21T06:25:04.655Z,68.70
2018-06-21T06:25:38.195Z,68.70
2018-06-21T06:26:12.032Z,68.80
2018-06-21T06:26:46.334Z,68.70
2018-06-21T06:27:19.892Z,68.70
2018-06-21T06:27:53.579Z,68.60
2018-06-21T06:28:27.173Z,68.50
2018-06-21T06:29:33.913Z,68.10
2018-06-21T06:30:08.220Z,68.40
2018-06-21T06:30:42.419Z,68.40
2018-06-21T06:31:15.954Z,68.40
2018-06-21T06:31:50.284Z,68.30
2018-06-21T06:32:24.443Z,68.40
2018-06-21T06:32:58.533Z,68.40
2018-06-21T06:33:32.083Z,68.30
2018-06-21T06:34:05.729Z,68.20
2018-06-21T06:34:40.712Z,68.10
2018-06-21T06:35:14.991Z,68.00
2018-06-21T06:35:48.592Z,67.80
2018-06-21T06:36:22.816Z,67.80
2018-06-21T06:37:31.113Z,67.50
2018-06-21T06:38:04.721Z,67.50
2018-06-21T06:38:38.274Z,67.50
2018-06-21T06:39:18.031Z,67.30
2018-06-21T06:39:52.180Z,66.90
2018-06-21T06:40:26.657Z,66.90
2018-06-21T06:41:00.636Z,67.00
2018-06-21T06:41:35.110Z,67.60
2018-06-21T06:42:08.752Z,67.10
2018-06-21T06:42:42.788Z,67.00
2018-06-21T06:43:16.344Z,67.00
2018-06-21T06:43:49.898Z,66.90
2018-06-21T06:44:23.479Z,66.80
2018-06-21T06:44:57.273Z,66.80
2018-06-21T06:45:30.894Z,66.80
2018-06-21T06:46:05.605Z,66.80
2018-06-21T06:46:39.180Z,66.70
2018-06-21T06:47:12.759Z,66.10
2018-06-21T06:47:46.348Z,65.80
2018-06-21T06:48:19.938Z,66.00
2018-06-21T06:48:53.835Z,65.90
2018-06-21T06:49:28.748Z,66.50
2018-06-21T06:50:02.331Z,65.70
2018-06-21T06:51:09.309Z,65.40
2018-06-21T06:52:16.089Z,65.00
2018-06-21T06:52:50.323Z,65.30
2018-06-21T06:53:23.938Z,65.40
2018-06-21T06:53:57.488Z,65.40
2018-06-21T06:54:31.075Z,65.60
2018-06-21T06:55:04.683Z,65.60
2018-06-21T06:55:38.202Z,65.50
2018-06-21T06:56:11.751Z,65.60
2018-06-21T06:56:46.178Z,65.70
2018-06-21T06:57:19.884Z,65.70
2018-06-21T06:57:53.492Z,65.80
2018-06-21T06:58:27.711Z,65.90
2018-06-21T06:59:01.600Z,65.90
2018-06-21T06:59:35.307Z,65.90
2018-06-21T07:00:10.287Z,65.90
2018-06-21T07:01:17.750Z,65.70
2018-06-21T07:01:51.356Z,65.60
2018-06-21T07:02:24.885Z,65.20
2018-06-21T07:02:58.417Z,65.30
2018-06-21T07:03:32.084Z,65.10
2018-06-21T07:04:06.432Z,65.00
2018-06-21T07:04:40.025Z,65.00
2018-06-21T07:05:46.703Z,64.80
2018-06-21T07:06:20.254Z,64.90
2018-06-21T07:06:53.825Z,64.70
2018-06-21T07:07:27.400Z,64.70
2018-06-21T07:08:01.467Z,64.60
2018-06-21T07:08:35.142Z,64.40
2018-06-21T07:09:09.461Z,64.20
2018-06-21T07:09:43.035Z,64.40
2018-06-21T07:10:18.119Z,64.30
2018-06-21T07:10:52.186Z,64.30
2018-06-21T07:11:26.734Z,64.30
2018-06-21T07:12:00.332Z,64.30
2018-06-21T07:12:34.532Z,64.10
2018-06-21T07:13:08.088Z,64.10
2018-06-21T07:13:42.143Z,64.10
2018-06-21T07:14:15.705Z,63.90
2018-06-21T07:14:49.234Z,64.10
2018-06-21T07:15:22.848Z,64.10
2018-06-21T07:15:57.027Z,64.10
2018-06-21T07:16:31.528Z,64.10
2018-06-21T07:17:05.215Z,64.40
2018-06-21T07:17:39.133Z,64.20
2018-06-21T07:18:13.954Z,64.10
2018-06-21T07:18:47.531Z,64.00
2018-06-21T07:19:21.051Z,63.90
2018-06-21T07:19:54.813Z,63.80
2018-06-21T07:20:28.420Z,63.90
2018-06-21T07:21:01.957Z,63.80
2018-06-21T07:21:38.756Z,63.70
2018-06-21T07:22:12.327Z,63.70
2018-06-21T07:22:46.706Z,63.30
2018-06-21T07:23:20.323Z,63.00
2018-06-21T07:23:53.942Z,63.00
2018-06-21T07:24:27.479Z,63.10
2018-06-21T07:25:01.056Z,63.10
2018-06-21T07:25:35.315Z,63.20
2018-06-21T07:26:08.953Z,63.10
2018-06-21T07:26:42.618Z,63.10
2018-06-21T07:27:17.709Z,62.90
2018-06-21T07:27:52.032Z,62.70
2018-06-21T07:28:26.350Z,62.60
2018-06-21T07:29:00.260Z,62.50
2018-06-21T07:29:34.116Z,62.20
2018-06-21T07:30:07.712Z,62.00
2018-06-21T07:30:41.338Z,61.80
2018-06-21T07:31:14.868Z,61.60
2018-06-21T07:31:48.464Z,61.50
2018-06-21T07:32:22.058Z,61.40
2018-06-21T07:32:56.293Z,61.10
2018-06-21T07:33:29.894Z,60.80
2018-06-21T07:34:38.358Z,60.40
2018-06-21T07:35:12.417Z,60.30
2018-06-21T07:35:45.972Z,60.30
2018-06-21T07:36:53.344Z,61.10
2018-06-21T07:37:27.119Z,60.50